Time;durP1;ratioP1;P1;durP2;ratioP2;P2;SDS_P1;SDS_P2;PMS_P1;PMS_P2;Temp;Humidity;BMP_temperature;BMP_pressure;BME280_temperature;BME280_humidity;BME280_pressure;Samples;Min_cycle;Max_cycle;Signal;HPM_P1;HPM_P2
2022/03/13 00:00:49;;;;;;;13.60;4.60;;;;;;;-1.68;55.15;99606.31;104725;1274;73357;-29
2022/03/13 00:03:19;;;;;;;6.00;3.70;;;;;;;-1.69;55.10;99609.39;104484;1274;61169;-29
2022/03/13 00:05:51;;;;;;;9.80;6.10;;;;;;;-1.69;55.14;99607.01;104605;1274;61038;-28
2022/03/13 00:08:30;;;;;;;9.00;4.20;;;;;;;-1.67;55.19;99606.96;104591;1274;73639;-28
2022/03/13 00:11:07;;;;;;;7.80;4.70;;;;;;;-1.70;55.46;99599.38;104682;1274;74976;-29
2022/03/13 00:13:44;;;;;;;7.60;4.20;;;;;;;-1.69;55.88;99599.53;104835;1274;74452;-29
2022/03/13 00:16:26;;;;;;;10.20;5.50;;;;;;;-1.71;55.56;99599.23;104724;1274;61313;-29
2022/03/13 00:18:58;;;;;;;7.60;4.80;;;;;;;-1.70;55.83;99596.49;104929;1274;61118;-29
2022/03/13 00:21:27;;;;;;;10.80;3.60;;;;;;;-1.72;56.41;99593.98;104897;1274;74793;-29
2022/03/13 00:23:56;;;;;;;10.50;5.20;;;;;;;-1.73;56.66;99592.98;104936;1274;76088;-29
2022/03/13 00:26:25;;;;;;;10.70;4.00;;;;;;;-1.79;56.71;99586.83;104898;1274;73695;-29
2022/03/13 00:28:56;;;;;;;9.80;5.40;;;;;;;-1.85;56.74;99592.92;104896;1274;61459;-29
2022/03/13 00:31:25;;;;;;;6.10;3.00;;;;;;;-1.88;57.18;99593.99;104689;1274;60972;-29
2022/03/13 00:33:55;;;;;;;14.60;6.40;;;;;;;-1.89;57.22;99595.73;104893;1274;73701;-28
2022/03/13 00:36:24;;;;;;;12.90;6.40;;;;;;;-1.93;57.36;99593.08;104799;1274;76053;-29
2022/03/13 00:38:53;;;;;;;12.30;6.20;;;;;;;-1.96;57.39;99591.08;104845;1274;74433;-29
2022/03/13 00:41:22;;;;;;;10.20;5.20;;;;;;;-1.98;57.45;99589.77;104722;1277;61103;-29
2022/03/13 00:43:51;;;;;;;11.60;5.90;;;;;;;-1.99;58.03;99590.14;104876;1274;61030;-29
2022/03/13 00:46:20;;;;;;;14.70;5.70;;;;;;;-2.01;57.94;99592.92;104866;1274;74695;-29
2022/03/13 00:48:50;;;;;;;11.50;5.00;;;;;;;-2.04;57.89;99589.73;104780;1274;76022;-29
2022/03/13 00:51:19;;;;;;;9.10;4.30;;;;;;;-2.04;58.13;99591.11;104819;1274;74254;-29
2022/03/13 00:53:48;;;;;;;7.60;4.90;;;;;;;-2.05;58.59;99587.55;104617;1277;61047;-29
2022/03/13 00:56:17;;;;;;;10.90;4.90;;;;;;;-2.06;58.23;99588.25;104947;1274;61141;-29
2022/03/13 00:58:48;;;;;;;11.00;5.70;;;;;;;-2.07;58.34;99587.41;104628;1274;73785;-29
2022/03/13 01:01:17;;;;;;;10.60;6.10;;;;;;;-2.06;58.24;99586.20;104801;1274;76059;-29
2022/03/13 01:03:49;;;;;;;14.10;6.60;;;;;;;-2.05;57.75;99587.05;104889;1274;74246;-29
2022/03/13 01:06:19;;;;;;;13.90;6.70;;;;;;;-2.04;58.24;99584.80;104738;1274;62064;-29
2022/03/13 01:08:51;;;;;;;14.50;6.80;;;;;;;-2.02;58.21;99584.92;104711;1274;62042;-29
2022/03/13 01:11:20;;;;;;;19.90;9.70;;;;;;;-2.01;58.06;99587.46;104685;1277;74734;-29
2022/03/13 01:13:50;;;;;;;21.60;8.60;;;;;;;-1.99;57.92;99588.60;104722;1274;75987;-29
2022/03/13 01:16:24;;;;;;;18.50;9.00;;;;;;;-1.96;58.22;99590.23;104641;1277;74437;-29
2022/03/13 01:19:00;;;;;;;23.30;10.80;;;;;;;-1.96;58.06;99589.73;104829;1274;61923;-29
2022/03/13 01:21:30;;;;;;;29.30;11.80;;;;;;;-1.95;58.03;99590.23;104678;1274;62030;-28
2022/03/13 01:24:06;;;;;;;25.00;10.50;;;;;;;-1.93;57.90;99591.55;104674;1274;73910;-29
2022/03/13 01:26:37;;;;;;;19.10;8.50;;;;;;;-1.91;57.96;99591.84;104685;1274;76450;-29
2022/03/13 01:29:08;;;;;;;19.10;8.60;;;;;;;-1.87;58.28;99596.03;104667;1276;74368;-29
2022/03/13 01:31:39;;;;;;;19.50;9.50;;;;;;;-1.86;58.50;99598.38;104688;1277;61159;-30
2022/03/13 01:34:37;;;;;;;16.40;8.10;;;;;;;-1.87;58.58;99597.21;104865;1274;61067;-31
2022/03/13 01:37:15;;;;;;;38.50;16.90;;;;;;;-1.84;58.81;99602.27;104705;1274;74939;-30
2022/03/13 01:39:44;;;;;;;13.70;7.60;;;;;;;-1.86;59.00;99603.31;104734;1274;74810;-30
2022/03/13 01:42:13;;;;;;;9.90;5.30;;;;;;;-1.85;58.99;99610.10;104920;1274;74464;-30
2022/03/13 01:44:42;;;;;;;11.40;5.90;;;;;;;-1.88;59.19;99609.83;104915;1274;61021;-30
2022/03/13 01:47:12;;;;;;;10.30;4.60;;;;;;;-1.86;59.28;99611.98;104845;1274;62042;-30
2022/03/13 01:49:41;;;;;;;10.50;5.80;;;;;;;-1.83;59.33;99609.71;104549;1277;74750;-30
2022/03/13 01:52:16;;;;;;;10.80;5.20;;;;;;;-1.83;59.31;99613.80;104822;1274;76836;-30
2022/03/13 01:54:45;;;;;;;6.30;3.50;;;;;;;-1.85;59.67;99616.40;105149;1271;74416;-30
2022/03/13 01:57:16;;;;;;;9.80;5.10;;;;;;;-1.84;59.39;99618.24;105139;1271;61141;-30
2022/03/13 01:59:52;;;;;;;18.30;7.60;;;;;;;-1.85;59.51;99619.13;105077;1271;61015;-30
2022/03/13 02:02:25;;;;;;;18.90;5.30;;;;;;;-1.85;59.69;99625.42;105061;1271;74739;-30
2022/03/13 02:04:56;;;;;;;10.20;5.30;;;;;;;-1.85;59.59;99625.94;104887;1271;75987;-30
2022/03/13 02:07:27;;;;;;;12.90;6.60;;;;;;;-1.83;59.50;99628.09;105069;1271;76063;-30
2022/03/13 02:09:56;;;;;;;13.90;6.60;;;;;;;-1.83;59.58;99626.41;105127;1271;61026;-30
2022/03/13 02:12:42;;;;;;;11.40;5.50;;;;;;;-1.83;59.53;99628.45;105110;1271;61079;-30
2022/03/13 02:15:12;;;;;;;10.60;6.00;;;;;;;-1.84;59.46;99627.96;105161;1271;74730;-30
2022/03/13 02:17:41;;;;;;;16.20;6.30;;;;;;;-1.84;59.48;99630.33;104970;1274;76018;-30
2022/03/13 02:20:35;;;;;;;11.60;5.70;;;;;;;-1.85;59.39;99630.54;104873;1271;75309;-30
2022/03/13 02:23:13;;;;;;;8.10;4.90;;;;;;;-1.81;59.66;99630.45;105096;1271;61283;-30
2022/03/13 02:25:42;;;;;;;11.80;5.40;;;;;;;-1.84;59.36;99635.96;104933;1271;61186;-30
2022/03/13 02:28:14;;;;;;;8.50;3.50;;;;;;;-1.82;59.34;99637.62;104831;1271;75533;-30
2022/03/13 02:30:46;;;;;;;14.90;6.00;;;;;;;-1.80;59.10;99640.14;104807;1271;75991;-30
2022/03/13 02:33:19;;;;;;;17.10;5.90;;;;;;;-1.81;59.30;99642.88;104945;1271;73426;-30
2022/03/13 02:35:53;;;;;;;;;;;;;;;-1.80;59.46;99646.27;104918;1271;61309;-28
2022/03/13 02:38:26;;;;;;;6.20;3.20;;;;;;;-1.79;59.49;99648.63;104773;1271;61625;-28
2022/03/13 02:40:55;;;;;;;7.70;3.50;;;;;;;-1.84;59.46;99650.78;104824;1271;74459;-29
2022/03/13 02:43:25;;;;;;;8.00;4.60;;;;;;;-1.85;59.53;99648.74;104710;1274;76052;-29
2022/03/13 02:45:54;;;;;;;8.90;4.30;;;;;;;-1.84;59.61;99653.48;104904;1271;74168;-29
2022/03/13 02:48:23;;;;;;;13.30;6.20;;;;;;;-1.82;59.71;99653.80;105102;1271;61335;-31
2022/03/13 02:50:52;;;;;;;12.90;5.80;;;;;;;-1.77;59.50;99658.95;104965;1271;61054;-31
2022/03/13 02:53:21;;;;;;;16.50;5.10;;;;;;;-1.82;59.57;99659.39;104882;1271;75304;-31
2022/03/13 02:55:50;;;;;;;9.50;4.50;;;;;;;-1.78;59.66;99659.48;105006;1271;76143;-30
2022/03/13 02:58:19;;;;;;;9.70;5.50;;;;;;;-1.75;59.52;99661.96;105008;1271;74343;-31
2022/03/13 03:00:50;;;;;;;7.30;4.40;;;;;;;-1.78;59.75;99665.96;105180;1271;61019;-32
2022/03/13 03:03:20;;;;;;;10.10;5.10;;;;;;;-1.79;59.58;99665.31;105141;1271;60908;-32
2022/03/13 03:05:50;;;;;;;12.90;6.10;;;;;;;-1.76;59.59;99667.09;105078;1271;75850;-32
2022/03/13 03:08:22;;;;;;;8.00;4.20;;;;;;;-1.76;59.86;99670.51;105150;1271;75797;-32
2022/03/13 03:10:51;;;;;;;8.40;4.50;;;;;;;-1.74;59.54;99673.52;105124;1271;73402;-29
2022/03/13 03:13:20;;;;;;;10.70;4.80;;;;;;;-1.75;59.77;99675.08;105124;1271;61374;-29
2022/03/13 03:15:49;;;;;;;10.00;5.00;;;;;;;-1.72;59.72;99676.70;105162;1271;61044;-28
2022/03/13 03:18:19;;;;;;;6.20;2.90;;;;;;;-1.72;59.79;99681.31;105131;1271;74317;-29
2022/03/13 03:20:49;;;;;;;10.40;5.50;;;;;;;-1.76;60.05;99682.59;105131;1270;74818;-29
2022/03/13 03:23:17;;;;;;;12.60;5.40;;;;;;;-1.76;60.29;99682.77;105106;1271;74149;-29
2022/03/13 03:25:46;;;;;;;11.00;5.60;;;;;;;-1.77;60.25;99679.90;104880;1271;61225;-29
2022/03/13 03:28:17;;;;;;;6.90;4.20;;;;;;;-1.81;60.51;99685.27;105101;1271;62099;-29
2022/03/13 03:30:49;;;;;;;11.60;5.00;;;;;;;-1.79;60.55;99686.40;104823;1271;75505;-28
2022/03/13 03:33:29;;;;;;;10.40;5.00;;;;;;;-1.80;60.47;99684.37;104721;1274;75849;-28
2022/03/13 03:35:58;;;;;;;7.60;4.40;;;;;;;-1.83;60.87;99688.54;105007;1273;74813;-28
2022/03/13 03:38:27;;;;;;;8.60;4.90;;;;;;;-1.83;61.22;99690.58;105006;1271;61252;-28
2022/03/13 03:40:56;;;;;;;16.20;6.60;;;;;;;-1.82;61.25;99689.38;105100;1271;61119;-29
2022/03/13 03:43:25;;;;;;;8.00;4.30;;;;;;;-1.87;61.38;99692.02;104974;1271;73439;-29
2022/03/13 03:45:56;;;;;;;12.20;5.90;;;;;;;-1.89;61.75;99695.96;104919;1271;75246;-29
2022/03/13 03:48:25;;;;;;;5.10;3.20;;;;;;;-1.89;62.05;99694.77;104922;1271;74413;-31
2022/03/13 03:50:54;;;;;;;11.30;5.30;;;;;;;-1.89;62.30;99697.85;104877;1271;61180;-29
2022/03/13 03:53:23;;;;;;;11.10;5.80;;;;;;;-1.88;62.63;99695.94;104915;1271;61121;-29
2022/03/13 03:55:52;;;;;;;12.50;6.00;;;;;;;-1.91;62.97;99699.23;104935;1271;75596;-29
2022/03/13 03:58:22;;;;;;;7.00;3.90;;;;;;;-1.85;63.01;99701.17;105068;1274;76428;-28
2022/03/13 04:00:54;;;;;;;13.70;6.90;;;;;;;-1.90;63.25;99702.45;104979;1271;74300;-29
2022/03/13 04:03:25;;;;;;;7.40;4.70;;;;;;;-1.89;63.45;99700.05;105030;1271;61130;-29
2022/03/13 04:05:54;;;;;;;9.90;5.30;;;;;;;-1.91;63.75;99697.89;104624;1271;61149;-30
2022/03/13 04:08:23;;;;;;;11.80;5.00;;;;;;;-1.82;63.79;99701.10;104898;1271;75669;-29
2022/03/13 04:11:12;;;;;;;9.30;4.30;;;;;;;-1.78;63.71;99698.98;104880;1271;76183;-29
2022/03/13 04:13:42;;;;;;;13.40;6.60;;;;;;;-1.84;63.86;99702.16;104997;1272;74722;-28
2022/03/13 04:16:15;;;;;;;10.60;5.90;;;;;;;-1.89;64.31;99700.56;104917;1271;61417;-29
2022/03/13 04:18:44;;;;;;;12.50;5.30;;;;;;;-1.88;64.37;99705.33;105045;1271;61752;-29
2022/03/13 04:21:15;;;;;;;12.50;6.10;;;;;;;-1.83;64.20;99705.73;105147;1271;76203;-29
2022/03/13 04:23:43;;;;;;;14.60;4.60;;;;;;;-1.90;64.28;99709.27;105149;1270;75095;-29
2022/03/13 04:26:15;;;;;;;9.30;5.30;;;;;;;-1.90;64.17;99709.10;105057;1271;73366;-29
2022/03/13 04:28:44;;;;;;;9.50;4.50;;;;;;;-1.88;64.52;99712.81;105040;1274;61009;-29
2022/03/13 04:31:13;;;;;;;12.50;7.50;;;;;;;-1.87;64.29;99716.67;105050;1271;61065;-29
2022/03/13 04:33:49;;;;;;;20.30;10.30;;;;;;;-1.90;64.63;99715.20;104991;1274;75533;-29
2022/03/13 04:36:21;;;;;;;12.60;6.80;;;;;;;-1.93;64.96;99720.38;104929;1271;74359;-31
2022/03/13 04:38:51;;;;;;;11.50;5.90;;;;;;;-1.90;64.79;99726.30;104967;1271;74370;-29
2022/03/13 04:41:20;;;;;;;15.30;6.70;;;;;;;-1.94;65.17;99733.16;105065;1271;61148;-30
2022/03/13 04:43:50;;;;;;;16.40;7.30;;;;;;;-1.95;65.25;99737.61;104996;1271;63905;-30
2022/03/13 04:46:19;;;;;;;9.30;4.30;;;;;;;-1.84;65.16;99736.05;105148;1271;75596;-30
2022/03/13 04:48:50;;;;;;;14.30;6.60;;;;;;;-1.19;63.41;99739.81;105097;1271;76064;-30
2022/03/13 04:51:20;;;;;;;15.90;8.00;;;;;;;-0.71;61.63;99743.49;105158;1271;74466;-30
2022/03/13 04:53:49;;;;;;;13.90;5.00;;;;;;;-0.55;60.90;99747.04;104974;1272;61805;-30
2022/03/13 04:56:17;;;;;;;21.20;9.60;;;;;;;-0.83;61.58;99747.17;105165;1271;62037;-30
2022/03/13 04:58:47;;;;;;;15.80;8.20;;;;;;;-1.01;62.23;99750.69;105131;1271;75375;-30
2022/03/13 05:01:19;;;;;;;12.50;6.00;;;;;;;-1.13;62.44;99750.94;105093;1271;75802;-30
2022/03/13 05:03:49;;;;;;;17.10;7.90;;;;;;;-1.26;62.89;99752.77;105124;1271;73109;-30
2022/03/13 05:06:19;;;;;;;17.10;8.20;;;;;;;-1.43;63.49;99754.64;105144;1271;61307;-29
2022/03/13 05:08:50;;;;;;;23.50;9.40;;;;;;;-1.43;63.67;99761.11;105143;1271;62318;-30
2022/03/13 05:11:39;;;;;;;20.00;9.00;;;;;;;-1.56;64.03;99762.89;104918;1274;75786;-30
2022/03/13 05:14:09;;;;;;;34.10;12.00;;;;;;;-1.52;64.01;99769.30;105054;1271;76126;-30
2022/03/13 05:16:38;;;;;;;21.80;9.30;;;;;;;-1.52;64.20;99773.38;105103;1274;74066;-30
2022/03/13 05:19:07;;;;;;;16.20;8.20;;;;;;;-1.60;64.34;99774.06;105050;1271;61136;-29
2022/03/13 05:21:45;;;;;;;21.80;10.90;;;;;;;-1.64;64.68;99781.44;105114;1271;61891;-30
2022/03/13 05:24:15;;;;;;;16.70;8.40;;;;;;;-1.59;64.82;99781.20;105128;1271;76534;-30
2022/03/13 05:26:45;;;;;;;17.70;7.70;;;;;;;-1.59;64.66;99785.96;105147;1272;75978;-29
2022/03/13 05:29:14;;;;;;;18.70;7.70;;;;;;;-1.56;64.94;99789.64;105147;1271;73911;-29
2022/03/13 05:31:44;;;;;;;21.10;10.40;;;;;;;-1.71;65.48;99799.13;105137;1271;61150;-30
2022/03/13 05:34:15;;;;;;;23.00;10.80;;;;;;;-1.68;65.70;99802.13;105127;1271;61157;-30
2022/03/13 05:36:46;;;;;;;14.70;8.00;;;;;;;-1.61;65.62;99805.41;104951;1271;74945;-30
2022/03/13 05:39:15;;;;;;;16.80;7.70;;;;;;;-1.63;65.83;99807.65;104806;1271;76151;-30
2022/03/13 05:41:44;;;;;;;13.80;7.60;;;;;;;-1.64;65.95;99806.13;104900;1271;74363;-30
2022/03/13 05:44:14;;;;;;;18.90;7.40;;;;;;;-1.43;65.51;99804.89;104938;1271;61600;-30
2022/03/13 05:46:43;;;;;;;13.80;6.40;;;;;;;-0.69;63.31;99812.02;104674;1274;61057;-29
2022/03/13 05:49:12;;;;;;;16.50;7.60;;;;;;;-0.42;62.07;99813.44;104907;1271;75350;-29
2022/03/13 05:51:42;;;;;;;10.40;4.20;;;;;;;-0.41;62.12;99820.23;104799;1271;75935;-30
2022/03/13 05:54:13;;;;;;;15.00;7.40;;;;;;;-0.51;61.98;99822.02;104791;1271;73387;-30
2022/03/13 05:56:45;;;;;;;16.40;7.80;;;;;;;-0.79;63.04;99823.30;104903;1271;61070;-30
2022/03/13 05:59:14;;;;;;;15.20;7.50;;;;;;;-0.74;62.93;99827.13;104939;1271;61147;-29
2022/03/13 06:01:50;;;;;;;17.00;6.60;;;;;;;-0.88;63.32;99828.45;105076;1271;76620;-30
2022/03/13 06:04:22;;;;;;;17.20;8.00;;;;;;;-0.81;63.40;99831.02;104894;1271;75052;-30
2022/03/13 06:06:51;;;;;;;14.00;7.10;;;;;;;-0.94;63.93;99830.79;104935;1271;74442;-30
2022/03/13 06:09:21;;;;;;;10.80;5.90;;;;;;;-1.10;64.46;99833.20;104903;1271;61587;-30
2022/03/13 06:11:50;;;;;;;12.80;6.60;;;;;;;-0.77;63.81;99841.17;104816;1271;61084;-30
2022/03/13 06:14:20;;;;;;;10.20;6.20;;;;;;;-0.71;63.44;99843.08;104888;1271;72569;-29
2022/03/13 06:17:08;;;;;;;20.00;9.80;;;;;;;-0.95;64.58;99847.36;104618;1274;77155;-29
2022/03/13 06:19:42;;;;;;;11.70;6.50;;;;;;;-1.00;65.02;99850.36;104797;1271;74201;-30
2022/03/13 06:22:14;;;;;;;12.50;6.00;;;;;;;-0.90;64.80;99861.40;105017;1274;61205;-30
2022/03/13 06:24:43;;;;;;;14.90;7.20;;;;;;;-0.85;64.67;99865.20;105053;1270;61063;-30
2022/03/13 06:27:16;;;;;;;17.90;7.10;;;;;;;-0.96;65.02;99868.52;105090;1274;75634;-29
2022/03/13 06:29:45;;;;;;;12.10;6.40;;;;;;;-1.12;65.86;99872.77;105093;1271;74844;-30
2022/03/13 06:32:14;;;;;;;19.30;9.70;;;;;;;-0.94;65.62;99874.27;104805;1271;72157;-30
2022/03/13 06:34:43;;;;;;;12.60;5.70;;;;;;;-0.81;65.31;99879.48;104959;1271;61126;-29
2022/03/13 06:37:12;;;;;;;10.50;5.60;;;;;;;-1.00;65.40;99880.20;104931;1271;62080;-30
2022/03/13 06:39:41;;;;;;;14.60;6.10;;;;;;;-0.89;65.21;99878.45;104905;1271;75787;-29
2022/03/13 06:42:10;;;;;;;12.40;7.00;;;;;;;-0.78;64.92;99882.79;104895;1271;75848;-29
2022/03/13 06:44:40;;;;;;;9.70;5.50;;;;;;;-0.75;64.97;99886.85;104795;1272;74484;-29
2022/03/13 06:47:08;;;;;;;13.40;6.50;;;;;;;-0.70;64.93;99889.11;105000;1271;61141;-29
2022/03/13 06:49:38;;;;;;;9.40;4.50;;;;;;;-0.90;65.81;99885.29;104946;1271;63923;-29
2022/03/13 06:52:07;;;;;;;12.70;6.20;;;;;;;-0.95;66.00;99890.49;104939;1271;75542;-29
2022/03/13 06:54:36;;;;;;;12.40;6.00;;;;;;;-0.83;65.82;99892.46;104842;1271;76073;-29
2022/03/13 06:57:05;;;;;;;17.50;7.20;;;;;;;-0.67;65.44;99894.02;104923;1271;74344;-30
2022/03/13 06:59:34;;;;;;;11.40;6.00;;;;;;;-0.75;65.74;99899.44;105112;1271;61134;-29
2022/03/13 07:02:03;;;;;;;12.20;6.10;;;;;;;-0.66;65.75;99904.55;105091;1270;62055;-28
2022/03/13 07:04:33;;;;;;;16.90;8.30;;;;;;;-0.47;65.30;99905.50;104886;1271;74533;-29
2022/03/13 07:07:03;;;;;;;10.00;5.10;;;;;;;-0.49;65.29;99909.81;104942;1271;74932;-31
2022/03/13 07:09:32;;;;;;;11.60;6.70;;;;;;;-0.38;64.85;99910.07;105007;1271;73422;-29
2022/03/13 07:12:02;;;;;;;11.90;6.50;;;;;;;-0.49;65.01;99909.63;105080;1271;61197;-31
2022/03/13 07:14:31;;;;;;;15.50;6.10;;;;;;;-0.63;65.81;99907.39;104867;1271;62259;-29
2022/03/13 07:17:00;;;;;;;11.30;5.40;;;;;;;-0.42;65.08;99908.64;104844;1271;75537;-30
2022/03/13 07:19:29;;;;;;;12.10;4.80;;;;;;;-0.28;64.66;99912.91;104971;1271;75772;-29
2022/03/13 07:21:58;;;;;;;10.60;5.80;;;;;;;-0.16;64.24;99919.48;104957;1271;74284;-29
2022/03/13 07:24:27;;;;;;;10.80;5.60;;;;;;;-0.11;63.90;99925.50;104844;1271;61554;-31
2022/03/13 07:26:57;;;;;;;14.50;5.70;;;;;;;-0.29;64.41;99929.67;105029;1271;61162;-31
2022/03/13 07:29:26;;;;;;;8.30;4.00;;;;;;;-0.08;64.01;99933.64;104947;1271;75482;-31
2022/03/13 07:31:56;;;;;;;15.10;6.30;;;;;;;0.18;63.77;99937.45;104908;1271;76044;-31
2022/03/13 07:34:26;;;;;;;16.00;7.10;;;;;;;0.21;63.09;99937.55;104827;1272;72909;-30
2022/03/13 07:36:55;;;;;;;13.00;5.70;;;;;;;0.37;62.70;99944.00;105098;1271;61662;-29
2022/03/13 07:39:25;;;;;;;13.90;5.80;;;;;;;0.50;62.10;99945.71;105047;1271;61207;-29
2022/03/13 07:41:55;;;;;;;14.50;6.90;;;;;;;0.57;62.08;99946.74;104787;1274;75886;-29
2022/03/13 07:44:24;;;;;;;13.00;7.20;;;;;;;0.52;62.11;99945.31;104913;1271;76021;-29
2022/03/13 07:46:54;;;;;;;16.00;8.10;;;;;;;0.53;61.99;99948.20;104967;1271;73414;-29
2022/03/13 07:49:23;;;;;;;16.20;7.00;;;;;;;0.26;62.52;99940.85;105070;1271;61506;-29
2022/03/13 07:51:52;;;;;;;7.50;3.50;;;;;;;0.48;62.18;99949.36;105026;1270;61042;-29
2022/03/13 07:54:21;;;;;;;11.70;4.50;;;;;;;0.67;61.31;99943.56;105165;1274;75581;-29
2022/03/13 07:56:50;;;;;;;14.70;6.60;;;;;;;0.77;60.89;99945.89;105130;1271;75991;-29
2022/03/13 07:59:19;;;;;;;14.50;6.20;;;;;;;0.90;61.07;99946.38;105164;1271;74527;-29
2022/03/13 08:01:49;;;;;;;14.30;7.00;;;;;;;0.77;60.75;99950.49;105126;1273;61661;-30
2022/03/13 08:04:19;;;;;;;15.90;6.20;;;;;;;0.70;61.27;99951.70;105100;1271;62258;-30
2022/03/13 08:06:49;;;;;;;13.70;6.40;;;;;;;0.69;61.54;99953.08;105145;1274;74530;-30
2022/03/13 08:09:18;;;;;;;14.80;5.80;;;;;;;0.57;61.74;99956.15;105049;1271;74128;-30
2022/03/13 08:11:47;;;;;;;14.90;7.00;;;;;;;0.40;61.96;99959.64;105155;1271;74479;-31
2022/03/13 08:14:17;;;;;;;9.60;4.90;;;;;;;0.59;61.44;99963.43;105022;1271;61468;-30
2022/03/13 08:16:46;;;;;;;8.20;4.30;;;;;;;0.90;60.30;99966.23;105091;1271;61069;-30
2022/03/13 08:19:16;;;;;;;10.20;5.30;;;;;;;1.02;60.11;99967.79;105180;1271;75607;-31
2022/03/13 08:21:46;;;;;;;7.80;3.60;;;;;;;0.97;59.92;99969.80;104933;1271;76362;-30
2022/03/13 08:24:17;;;;;;;19.40;9.20;;;;;;;0.91;59.76;99970.63;104932;1271;74159;-30
2022/03/13 08:26:46;;;;;;;36.90;16.70;;;;;;;0.89;60.29;99968.66;104693;1274;61092;-30
2022/03/13 08:29:16;;;;;;;15.80;7.10;;;;;;;0.70;60.40;99968.11;104913;1271;61070;-29
2022/03/13 08:31:45;;;;;;;13.10;6.20;;;;;;;0.40;61.76;99967.16;104836;1271;74737;-30
2022/03/13 08:34:16;;;;;;;12.40;5.70;;;;;;;0.31;62.29;99967.55;104816;1271;76554;-28
2022/03/13 08:36:47;;;;;;;13.50;6.00;;;;;;;0.29;62.14;99967.77;104847;1272;73368;-28
2022/03/13 08:39:16;;;;;;;11.20;3.90;;;;;;;0.39;61.70;99967.35;104779;1274;61097;-29
2022/03/13 08:41:45;;;;;;;13.50;6.10;;;;;;;0.42;61.82;99973.61;104940;1271;62538;-28
2022/03/13 08:44:14;;;;;;;13.00;7.10;;;;;;;0.37;62.00;99974.23;105119;1271;76072;-30
2022/03/13 08:46:43;;;;;;;12.20;6.40;;;;;;;0.23;62.44;99972.70;104919;1271;75791;-28
2022/03/13 08:49:12;;;;;;;14.50;5.20;;;;;;;0.02;63.08;99977.79;104931;1271;74255;-30
2022/03/13 08:51:56;;;;;;;10.10;5.10;;;;;;;0.38;62.36;99985.83;104713;1273;61142;-29
2022/03/13 08:54:42;;;;;;;7.10;3.70;;;;;;;0.41;62.17;99987.64;104908;1271;61039;-29
2022/03/13 08:57:31;;;;;;;12.30;6.40;;;;;;;0.58;61.41;99990.29;104728;1274;75486;-29
2022/03/13 09:00:00;;;;;;;9.50;4.90;;;;;;;0.73;60.75;99993.52;104861;1271;75519;-29
2022/03/13 09:02:30;;;;;;;8.70;3.90;;;;;;;0.88;60.56;99994.16;104911;1271;73404;-28
2022/03/13 09:04:59;;;;;;;9.70;4.70;;;;;;;0.99;60.01;99996.09;104948;1271;61228;-29
2022/03/13 09:07:28;;;;;;;7.00;3.90;;;;;;;0.84;60.59;99998.02;104947;1271;61029;-29
2022/03/13 09:09:58;;;;;;;15.60;8.20;;;;;;;1.10;60.23;99998.36;104941;1271;73368;-29
2022/03/13 09:12:27;;;;;;;12.90;6.00;;;;;;;1.22;60.15;100002.48;104974;1271;74969;-29
2022/03/13 09:14:59;;;;;;;15.20;6.60;;;;;;;1.16;59.67;100002.64;105039;1271;74518;-29
2022/03/13 09:17:28;;;;;;;13.30;6.80;;;;;;;1.17;60.03;100005.69;104768;1274;61328;-29
2022/03/13 09:19:58;;;;;;;13.10;6.50;;;;;;;0.74;60.61;100003.74;104897;1271;61089;-29
2022/03/13 09:22:30;;;;;;;14.30;6.30;;;;;;;1.06;60.28;100007.88;104692;1274;75496;-29
2022/03/13 09:25:00;;;;;;;16.50;7.70;;;;;;;0.94;60.53;100006.14;104930;1271;76391;-30
2022/03/13 09:27:29;;;;;;;17.80;8.00;;;;;;;1.02;60.61;100011.39;104814;1271;73345;-29
2022/03/13 09:29:58;;;;;;;23.10;8.20;;;;;;;0.90;61.08;100007.75;104750;1271;61148;-29
2022/03/13 09:32:28;;;;;;;18.50;8.60;;;;;;;1.10;61.25;100012.89;104898;1271;61876;-29
2022/03/13 09:34:58;;;;;;;18.80;8.50;;;;;;;1.09;60.69;100012.23;104927;1271;75543;-29
2022/03/13 09:37:27;;;;;;;17.60;7.00;;;;;;;1.07;60.80;100014.18;105024;1270;75845;-29
2022/03/13 09:40:14;;;;;;;15.60;7.60;;;;;;;1.20;60.63;100015.02;104923;1271;74330;-29
2022/03/13 09:42:45;;;;;;;16.20;7.70;;;;;;;1.01;61.16;100013.30;104807;1272;61089;-29
2022/03/13 09:45:14;;;;;;;15.80;7.20;;;;;;;1.00;61.04;100014.18;104723;1275;61870;-29
2022/03/13 09:47:43;;;;;;;15.20;7.20;;;;;;;0.98;61.46;100017.63;104920;1271;75520;-30
2022/03/13 09:50:15;;;;;;;15.10;7.50;;;;;;;1.27;60.92;100022.55;104913;1271;76012;-29
2022/03/13 09:52:45;;;;;;;17.10;7.40;;;;;;;1.56;59.68;100021.20;104760;1271;73713;-29
2022/03/13 09:55:15;;;;;;;14.80;7.70;;;;;;;1.72;59.32;100023.99;105010;1271;61010;-29
2022/03/13 09:57:46;;;;;;;10.70;5.40;;;;;;;1.32;60.04;100022.23;104979;1271;61073;-29
2022/03/13 10:00:17;;;;;;;13.40;5.60;;;;;;;1.32;59.85;100022.73;104917;1271;75541;-30
2022/03/13 10:02:47;;;;;;;15.90;8.00;;;;;;;1.39;59.86;100019.80;104793;1274;76413;-29
2022/03/13 10:05:20;;;;;;;12.10;6.10;;;;;;;1.20;60.21;100018.11;104787;1271;73162;-29
2022/03/13 10:07:58;;;;;;;10.10;4.80;;;;;;;1.09;60.60;100020.79;104865;1271;61162;-29
2022/03/13 10:10:47;;;;;;;12.30;7.00;;;;;;;1.33;60.00;100027.66;104942;1274;61079;-30
2022/03/13 10:13:49;;;;;;;12.10;5.70;;;;;;;1.54;59.58;100028.27;105024;1271;76169;-29
2022/03/13 10:16:35;;;;;;;10.00;4.60;;;;;;;1.39;59.25;100028.88;104808;1274;76032;-29
2022/03/13 10:19:14;;;;;;;13.30;5.70;;;;;;;1.45;58.87;100033.66;104397;1274;347305;-29
2022/03/13 10:22:03;;;;;;;8.80;4.70;;;;;;;1.66;58.26;100036.00;104737;1272;61225;-29
2022/03/13 10:24:46;;;;;;;9.00;4.50;;;;;;;1.77;57.99;100038.41;104844;1271;61543;-29
2022/03/13 10:27:17;;;;;;;16.70;7.20;;;;;;;1.48;58.40;100039.74;104760;1272;74297;-29
2022/03/13 10:29:47;;;;;;;13.90;6.80;;;;;;;1.09;59.11;100040.11;104837;1271;73989;-29
2022/03/13 10:32:17;;;;;;;12.30;5.90;;;;;;;0.94;59.38;100041.88;104786;1274;74642;-30
2022/03/13 10:34:56;;;;;;;14.20;6.50;;;;;;;1.37;59.10;100046.21;104951;1271;61102;-30
2022/03/13 10:37:41;;;;;;;9.50;5.80;;;;;;;1.42;58.87;100046.41;104665;1274;61198;-29
2022/03/13 10:40:24;;;;;;;11.10;6.20;;;;;;;1.16;59.36;100046.08;104823;1272;73527;-30
2022/03/13 10:42:58;;;;;;;6.70;3.50;;;;;;;1.32;59.43;100048.58;104780;1272;75789;-29
2022/03/13 10:45:36;;;;;;;11.40;5.90;;;;;;;1.29;59.08;100048.98;105145;1272;74474;-29
2022/03/13 10:48:18;;;;;;;15.20;6.80;;;;;;;1.26;58.80;100048.73;104876;1274;61006;-29
2022/03/13 10:50:51;;;;;;;9.90;5.80;;;;;;;1.02;59.74;100052.41;104808;1271;62227;-30
2022/03/13 10:53:21;;;;;;;9.40;6.20;;;;;;;0.94;59.68;100050.76;104895;1271;75081;-29
2022/03/13 10:56:01;;;;;;;10.00;4.90;;;;;;;0.94;60.01;100052.64;104814;1271;74991;-29
2022/03/13 10:58:31;;;;;;;12.30;5.70;;;;;;;1.14;59.48;100051.29;104795;1271;72860;-29
2022/03/13 11:01:10;;;;;;;10.30;5.40;;;;;;;0.78;60.20;100049.29;105122;1271;61109;-29
2022/03/13 11:03:57;;;;;;;10.20;5.60;;;;;;;0.75;60.05;100053.44;105138;1271;61563;-29
2022/03/13 11:06:26;;;;;;;11.40;5.70;;;;;;;1.05;59.47;100055.42;104990;1271;74243;-29
2022/03/13 11:08:57;;;;;;;9.20;5.00;;;;;;;1.09;58.63;100056.36;104800;1274;75914;-30
2022/03/13 11:11:27;;;;;;;8.60;5.10;;;;;;;1.18;59.07;100056.96;104801;1271;74473;-29
2022/03/13 11:14:06;;;;;;;7.70;4.50;;;;;;;1.14;58.54;100059.49;104697;1274;61111;-29
2022/03/13 11:16:39;;;;;;;9.70;4.90;;;;;;;1.20;58.41;100061.36;104726;1274;61134;-29
2022/03/13 11:19:09;;;;;;;11.30;6.10;;;;;;;0.94;58.83;100063.94;104837;1272;75346;-29
2022/03/13 11:21:40;;;;;;;10.30;5.90;;;;;;;0.94;59.02;100062.37;104915;1271;75998;-30
2022/03/13 11:24:13;;;;;;;11.10;5.40;;;;;;;0.68;59.25;100065.41;104879;1271;74866;-29
2022/03/13 11:26:45;;;;;;;12.70;5.30;;;;;;;0.83;59.16;100070.00;104818;1274;61124;-29
2022/03/13 11:29:15;;;;;;;16.40;7.80;;;;;;;0.91;59.40;100067.59;105011;1272;61085;-29
2022/03/13 11:31:47;;;;;;;9.10;5.00;;;;;;;0.84;58.98;100064.19;105054;1273;75086;-29
2022/03/13 11:34:18;;;;;;;9.20;4.20;;;;;;;0.66;59.57;100063.43;104849;1274;75849;-30
2022/03/13 11:36:50;;;;;;;11.00;5.90;;;;;;;0.63;59.49;100061.94;104741;1274;74437;-30
2022/03/13 11:39:26;;;;;;;12.80;6.40;;;;;;;0.55;59.58;100063.16;104649;1271;61169;-30